Time;durP1;ratioP1;P1;durP2;ratioP2;P2;SDS_P1;SDS_P2;PMS_P1;PMS_P2;Temp;Humidity;BMP_temperature;BMP_pressure;BME280_temperature;BME280_humidity;BME280_pressure;Samples;Min_cycle;Max_cycle;Signal;HPM_P1;HPM_P2
2021/06/10 00:01:00;;;;;;;7.10;4.90;;;21.70;1.00;;;;;;5078195;28;20458;-69
2021/06/10 00:03:27;;;;;;;9.00;5.17;;;21.70;1.00;;;;;;5078231;28;20506;-69
2021/06/10 00:05:54;;;;;;;5.70;5.00;;;21.70;1.00;;;;;;5078972;28;20906;-69
2021/06/10 00:08:20;;;;;;;6.80;5.17;;;21.60;1.00;;;;;;5079095;28;20759;-69
2021/06/10 00:10:47;;;;;;;5.63;5.13;;;21.70;1.00;;;;;;5078221;28;20557;-70
2021/06/10 00:13:15;;;;;;;7.77;5.43;;;21.70;1.00;;;;;;5077859;28;20493;-67
2021/06/10 00:15:41;;;;;;;6.30;5.60;;;21.70;1.00;;;;;;5078252;28;20464;-68
2021/06/10 00:18:08;;;;;;;6.00;4.90;;;21.70;1.00;;;;;;5078331;28;20461;-69
2021/06/10 00:20:38;;;;;;;6.30;4.80;;;21.70;1.00;;;;;;5078284;28;20464;-68
2021/06/10 00:23:06;;;;;;;10.93;5.67;;;21.70;1.00;;;;;;5077715;28;20473;-68
2021/06/10 00:25:32;;;;;;;8.10;5.60;;;21.60;1.00;;;;;;5078254;28;20473;-69
2021/06/10 00:27:59;;;;;;;7.83;5.30;;;21.60;1.00;;;;;;5077481;28;20482;-68
2021/06/10 00:30:26;;;;;;;5.43;4.93;;;21.60;1.00;;;;;;5077754;28;20848;-68
2021/06/10 00:32:53;;;;;;;5.93;5.33;;;21.60;1.00;;;;;;5077847;28;20475;-69
2021/06/10 00:35:21;;;;;;;6.40;5.10;;;21.60;1.00;;;;;;5077458;28;20523;-69
2021/06/10 00:37:50;;;;;;;5.97;5.20;;;21.60;1.00;;;;;;5076252;28;20454;-69
2021/06/10 00:40:16;;;;;;;5.63;5.03;;;21.50;1.00;;;;;;5077353;28;20454;-69
2021/06/10 00:42:43;;;;;;;6.63;5.20;;;21.50;1.00;;;;;;5077167;28;20923;-70
2021/06/10 00:45:12;;;;;;;7.07;5.37;;;21.40;1.00;;;;;;5077520;28;20462;-70
2021/06/10 00:47:38;;;;;;;7.73;6.60;;;21.40;1.00;;;;;;5077807;28;20454;-69
2021/06/10 00:50:06;;;;;;;6.43;5.40;;;21.40;1.00;;;;;;5078032;28;20820;-69
2021/06/10 00:52:33;;;;;;;6.73;6.10;;;21.30;1.00;;;;;;5077298;28;20454;-69
2021/06/10 00:55:01;;;;;;;13.50;11.03;;;21.30;1.00;;;;;;5077192;28;20462;-69
2021/06/10 00:57:27;;;;;;;16.40;11.80;;;21.30;1.00;;;;;;5077662;28;20461;-70
2021/06/10 00:59:55;;;;;;;10.00;6.97;;;21.20;1.00;;;;;;5078047;28;20458;-69
2021/06/10 01:02:21;;;;;;;6.00;5.40;;;21.20;1.00;;;;;;5075712;28;20458;-69
2021/06/10 01:04:48;;;;;;;6.63;5.63;;;21.20;1.00;;;;;;5077695;28;20466;-69
2021/06/10 01:07:21;;;;;;;6.20;5.60;;;21.20;1.00;;;;;;5077381;28;20465;-70
2021/06/10 01:09:50;;;;;;;14.03;5.43;;;21.10;1.00;;;;;;5077238;28;20554;-68
2021/06/10 01:12:26;;;;;;;7.07;6.37;;;21.10;1.00;;;;;;5077541;28;20454;-69
2021/06/10 01:14:59;;;;;;;8.70;6.37;;;21.00;1.00;;;;;;5076153;28;20910;-69
2021/06/10 01:17:27;;;;;;;11.33;6.10;;;21.00;1.00;;;;;;5075595;28;20438;-69
2021/06/10 01:20:06;;;;;;;7.27;5.33;;;21.00;1.00;;;;;;5075877;28;20466;-69
2021/06/10 01:22:40;;;;;;;6.30;5.70;;;20.90;1.00;;;;;;5075424;28;20481;-69
2021/06/10 01:25:15;;;;;;;6.10;5.17;;;20.90;1.00;;;;;;5077528;28;20439;-69
2021/06/10 01:27:46;;;;;;;6.00;5.20;;;20.90;1.00;;;;;;5077188;28;20499;-69
2021/06/10 01:30:16;;;;;;;6.70;5.50;;;20.80;1.00;;;;;;5076823;28;20449;-70
2021/06/10 01:32:47;;;;;;;6.60;6.00;;;20.80;1.00;;;;;;5076176;28;20450;-70
2021/06/10 01:35:15;;;;;;;7.63;5.30;;;20.80;5.00;;;;;;5077037;28;20449;-69
2021/06/10 01:37:44;;;;;;;5.90;5.27;;;20.80;1.00;;;;;;5076898;28;20805;-68
2021/06/10 01:40:12;;;;;;;7.77;5.53;;;20.70;3.10;;;;;;5076204;28;20783;-68
2021/06/10 01:42:39;;;;;;;7.03;5.30;;;20.70;10.80;;;;;;5076396;28;20455;-68
2021/06/10 01:45:10;;;;;;;6.47;5.70;;;20.70;21.80;;;;;;5075989;28;20454;-69
2021/06/10 01:47:37;;;;;;;5.77;4.93;;;20.70;49.70;;;;;;5075866;28;20446;-70
2021/06/10 01:50:04;;;;;;;5.90;5.30;;;20.70;72.70;;;;;;5076040;28;20461;-70
2021/06/10 01:52:32;;;;;;;12.33;5.20;;;20.70;55.00;;;;;;5075678;28;20465;-69
2021/06/10 01:54:59;;;;;;;7.30;6.07;;;20.80;50.30;;;;;;5076254;28;20458;-69
2021/06/10 01:57:27;;;;;;;6.30;5.70;;;20.80;44.60;;;;;;5075865;28;20454;-69
2021/06/10 01:59:55;;;;;;;6.37;5.77;;;20.90;27.40;;;;;;5075177;28;20461;-68
2021/06/10 02:02:24;;;;;;;8.17;5.30;;;20.90;11.70;;;;;;5075889;28;20492;-70
2021/06/10 02:04:53;;;;;;;5.77;5.27;;;20.90;8.60;;;;;;5075921;28;20984;-69
2021/06/10 02:07:19;;;;;;;6.30;5.13;;;20.90;11.70;;;;;;5076545;28;20465;-69
2021/06/10 02:09:46;;;;;;;7.10;5.80;;;20.80;19.50;;;;;;5075679;28;20458;-69
2021/06/10 02:12:13;;;;;;;8.47;5.37;;;20.80;28.70;;;;;;5075820;28;20465;-69
2021/06/10 02:14:41;;;;;;;5.77;5.20;;;20.70;36.60;;;;;;5075280;28;20840;-70
2021/06/10 02:17:08;;;;;;;6.03;5.43;;;20.60;28.90;;;;;;5075631;28;20547;-70
2021/06/10 02:19:37;;;;;;;5.73;5.23;;;20.60;20.20;;;;;;5075333;28;20539;-70
2021/06/10 02:22:03;;;;;;;5.70;5.13;;;20.60;22.40;;;;;;5075031;28;20454;-70
2021/06/10 02:24:30;;;;;;;5.73;4.93;;;20.60;41.90;;;;;;5075217;28;20435;-70
2021/06/10 02:26:56;;;;;;;6.07;5.43;;;20.50;56.60;;;;;;5074095;28;20902;-70
2021/06/10 02:29:22;;;;;;;6.40;5.70;;;20.50;57.30;;;;;;5075009;28;20926;-70
2021/06/10 02:31:48;;;;;;;5.87;5.27;;;20.50;44.50;;;;;;5075240;28;20461;-70
2021/06/10 02:34:15;;;;;;;9.73;5.10;;;20.50;41.10;;;;;;5075373;28;20482;-70
2021/06/10 02:36:46;;;;;;;5.57;5.10;;;20.50;59.10;;;;;;5075005;28;20872;-70
2021/06/10 02:39:18;;;;;;;5.80;5.30;;;20.50;57.40;;;;;;5074858;28;20886;-70
2021/06/10 02:41:50;;;;;;;5.67;5.17;;;20.50;57.40;;;;;;5074871;28;20529;-70
2021/06/10 02:44:20;;;;;;;9.43;5.40;;;20.50;91.10;;;;;;5075028;28;20778;-70
2021/06/10 02:46:47;;;;;;;6.03;5.10;;;20.60;63.10;;;;;;5075008;28;20469;-70
2021/06/10 02:49:17;;;;;;;5.80;5.30;;;20.60;71.40;;;;;;5075007;28;20906;-70
2021/06/10 02:51:45;;;;;;;5.50;5.00;;;20.60;84.70;;;;;;5075064;28;20459;-70
2021/06/10 02:54:16;;;;;;;6.00;5.37;;;20.60;78.00;;;;;;5074655;28;20477;-70
2021/06/10 02:56:43;;;;;;;6.73;5.67;;;20.70;67.70;;;;;;5074785;28;20453;-70
2021/06/10 02:59:13;;;;;;;6.37;5.80;;;20.70;77.90;;;;;;5075001;28;20458;-70
2021/06/10 03:01:42;;;;;;;5.97;4.73;;;20.70;75.70;;;;;;5074244;28;20552;-70
2021/06/10 03:04:10;;;;;;;8.63;5.83;;;20.70;73.10;;;;;;5074992;28;20453;-70
2021/06/10 03:06:36;;;;;;;8.53;5.67;;;20.70;71.90;;;;;;5074700;28;20458;-70
2021/06/10 03:09:05;;;;;;;6.97;6.27;;;20.80;71.50;;;;;;5074934;28;20466;-70
2021/06/10 03:11:32;;;;;;;7.43;6.27;;;20.80;99.90;;;;;;5074531;28;20469;-70
2021/06/10 03:13:58;;;;;;;6.67;6.07;;;20.70;99.90;;;;;;5074742;28;20826;-70
2021/06/10 03:16:26;;;;;;;6.00;5.40;;;20.70;99.90;;;;;;5075643;28;20462;-70
2021/06/10 03:18:54;;;;;;;6.40;5.23;;;20.60;99.90;;;;;;5074726;28;20469;-70
2021/06/10 03:21:21;;;;;;;8.03;4.90;;;20.60;99.90;;;;;;5074747;28;20553;-70
2021/06/10 03:23:47;;;;;;;8.03;5.30;;;20.40;99.90;;;;;;5074096;28;20489;-68
2021/06/10 03:26:18;;;;;;;9.07;5.63;;;20.30;99.90;;;;;;5074478;28;20469;-68
2021/06/10 03:28:45;;;;;;;5.67;4.93;;;20.30;99.90;;;;;;5074640;28;20762;-69
2021/06/10 03:31:11;;;;;;;5.47;4.93;;;20.20;99.90;;;;;;5074456;28;20458;-68
2021/06/10 03:33:37;;;;;;;5.43;4.93;;;20.10;99.90;;;;;;5074653;28;20478;-70
2021/06/10 03:36:05;;;;;;;6.97;5.87;;;20.00;99.90;;;;;;5074583;28;20470;-70
2021/06/10 03:38:32;;;;;;;8.40;5.50;;;19.90;99.90;;;;;;5074566;28;20473;-69
2021/06/10 03:40:59;;;;;;;5.80;5.20;;;19.80;99.90;;;;;;5074382;28;20465;-70
2021/06/10 03:43:27;;;;;;;6.20;5.60;;;19.80;99.90;;;;;;5074522;28;20784;-69
2021/06/10 03:45:55;;;;;;;6.60;5.90;;;19.70;99.90;;;;;;5074296;28;20930;-70
2021/06/10 03:48:21;;;;;;;9.67;5.73;;;19.60;99.90;;;;;;5074468;28;20458;-70
2021/06/10 03:50:48;;;;;;;5.53;5.03;;;19.60;99.90;;;;;;5074119;28;20450;-69
2021/06/10 03:53:15;;;;;;;7.17;6.27;;;19.50;99.90;;;;;;5074064;28;20485;-69
2021/06/10 03:55:41;;;;;;;6.23;5.63;;;19.40;1.00;;;;;;5074048;28;20453;-69
2021/06/10 03:58:08;;;;;;;6.53;5.83;;;19.40;1.00;;;;;;5074402;28;20552;-69
2021/06/10 04:00:35;;;;;;;6.03;5.53;;;19.40;1.00;;;;;;5074540;28;20930;-69
2021/06/10 04:03:01;;;;;;;6.43;5.20;;;19.40;1.00;;;;;;5074189;28;20457;-69
2021/06/10 04:05:30;;;;;;;5.80;5.30;;;19.40;1.00;;;;;;5074204;28;20469;-69
2021/06/10 04:07:56;;;;;;;6.27;5.70;;;19.40;1.00;;;;;;5074088;28;20496;-70
2021/06/10 04:10:23;;;;;;;5.83;5.33;;;19.40;1.00;;;;;;5074376;28;20465;-70
2021/06/10 04:12:49;;;;;;;5.70;5.20;;;19.40;1.00;;;;;;5076368;28;20458;-70
2021/06/10 04:15:16;;;;;;;5.60;5.20;;;19.40;1.00;;;;;;5077745;28;20933;-70
2021/06/10 04:17:44;;;;;;;6.93;6.23;;;19.40;1.00;;;;;;5077446;28;20454;-70
2021/06/10 04:20:11;;;;;;;6.20;5.63;;;19.50;1.00;;;;;;5078033;28;20493;-70
2021/06/10 04:22:38;;;;;;;7.10;4.87;;;19.50;1.00;;;;;;5077242;28;20485;-69
2021/06/10 04:25:05;;;;;;;5.40;4.90;;;19.60;1.00;;;;;;5077230;28;20907;-70
2021/06/10 04:27:32;;;;;;;5.70;5.20;;;19.70;1.00;;;;;;5077925;28;20915;-69
2021/06/10 04:29:58;;;;;;;5.13;4.60;;;19.70;1.00;;;;;;5077649;28;20454;-69
2021/06/10 04:32:24;;;;;;;5.17;4.73;;;19.80;1.00;;;;;;5077343;28;20454;-70
2021/06/10 04:34:52;;;;;;;5.20;4.70;;;19.80;99.90;;;;;;5077275;28;20493;-70
2021/06/10 04:37:18;;;;;;;7.03;5.53;;;19.90;99.90;;;;;;5077014;28;20458;-69
2021/06/10 04:39:44;;;;;;;5.47;4.97;;;19.90;99.90;;;;;;5077417;28;20836;-69
2021/06/10 04:42:12;;;;;;;6.30;5.20;;;20.00;99.90;;;;;;5077444;28;20469;-69
2021/06/10 04:44:38;;;;;;;5.73;5.20;;;20.00;99.90;;;;;;5078457;28;20450;-69
2021/06/10 04:47:05;;;;;;;5.50;5.00;;;20.10;99.90;;;;;;5077466;28;20781;-69
2021/06/10 04:49:34;;;;;;;10.33;7.50;;;20.10;99.90;;;;;;5077149;28;20458;-69
2021/06/10 04:52:02;;;;;;;6.53;5.93;;;20.20;96.50;;;;;;5077100;28;20471;-69
2021/06/10 04:54:28;;;;;;;6.10;5.50;;;20.30;48.10;;;;;;5077285;28;20803;-70
2021/06/10 04:56:54;;;;;;;5.80;5.30;;;20.30;21.40;;;;;;5077081;28;20458;-69
2021/06/10 04:59:21;;;;;;;26.00;19.00;;;20.40;35.50;;;;;;5076961;28;20469;-69
2021/06/10 05:01:47;;;;;;;11.20;8.50;;;20.40;13.50;;;;;;5076647;28;20947;-69
2021/06/10 05:04:14;;;;;;;6.03;5.43;;;20.50;1.00;;;;;;5076880;28;20454;-69
2021/06/10 05:06:40;;;;;;;6.53;6.03;;;20.50;1.00;;;;;;5077885;28;20462;-69
2021/06/10 05:09:08;;;;;;;6.83;5.00;;;20.60;1.00;;;;;;5077282;28;20458;-69
2021/06/10 05:11:34;;;;;;;5.93;5.40;;;20.60;1.00;;;;;;5076810;28;20933;-69
2021/06/10 05:14:00;;;;;;;6.00;5.50;;;20.80;1.00;;;;;;5076790;28;20489;-69
2021/06/10 05:16:27;;;;;;;9.13;6.20;;;20.90;1.00;;;;;;5076404;28;20450;-69
2021/06/10 05:18:53;;;;;;;5.53;5.03;;;21.00;1.00;;;;;;5076623;28;20454;-69
2021/06/10 05:21:20;;;;;;;4.83;4.40;;;21.10;1.00;;;;;;5076623;28;20504;-69
2021/06/10 05:23:46;;;;;;;7.20;5.33;;;21.10;1.00;;;;;;5075687;28;20479;-69
2021/06/10 05:26:14;;;;;;;26.27;22.20;;;21.20;1.00;;;;;;5076508;28;20465;-69
2021/06/10 05:28:40;;;;;;;14.67;7.57;;;21.30;1.00;;;;;;5076938;28;20458;-69
2021/06/10 05:31:07;;;;;;;5.93;4.80;;;21.40;1.00;;;;;;5076870;28;20482;-69
2021/06/10 05:33:36;;;;;;;5.83;4.80;;;21.40;1.00;;;;;;5076545;28;20886;-69
2021/06/10 05:36:03;;;;;;;8.77;5.03;;;21.50;1.00;;;;;;5075975;28;20507;-69
2021/06/10 05:38:29;;;;;;;6.47;4.83;;;21.50;1.00;;;;;;5076048;28;20538;-69
2021/06/10 05:40:56;;;;;;;10.80;4.67;;;21.60;1.00;;;;;;5076217;28;20458;-70
2021/06/10 05:43:23;;;;;;;4.47;4.07;;;21.60;1.00;;;;;;5076097;28;20774;-69
2021/06/10 05:45:50;;;;;;;5.60;4.50;;;21.60;1.00;;;;;;5076218;28;20808;-70
2021/06/10 05:48:17;;;;;;;7.63;4.87;;;21.60;1.00;;;;;;5076145;28;20454;-70
2021/06/10 05:50:44;;;;;;;6.47;5.30;;;21.60;1.00;;;;;;5076626;28;20500;-70
2021/06/10 05:53:10;;;;;;;8.77;5.53;;;21.70;1.00;;;;;;5075758;28;20458;-69
2021/06/10 05:55:37;;;;;;;5.20;4.70;;;21.70;1.00;;;;;;5075660;28;20465;-69
2021/06/10 05:58:04;;;;;;;6.03;5.43;;;21.80;1.00;;;;;;5075855;28;20459;-70
2021/06/10 06:00:31;;;;;;;5.23;4.53;;;21.80;1.00;;;;;;5075935;28;20454;-69
2021/06/10 06:02:59;;;;;;;9.03;5.00;;;21.80;1.00;;;;;;5075640;28;20500;-68
2021/06/10 06:05:25;;;;;;;5.70;4.87;;;21.80;1.00;;;;;;5075503;28;20469;-69
2021/06/10 06:07:51;;;;;;;7.90;5.13;;;21.90;1.00;;;;;;5075955;28;20458;-70
2021/06/10 06:10:21;;;;;;;11.93;5.47;;;21.90;1.00;;;;;;5075963;28;20562;-69
2021/06/10 06:12:50;;;;;;;5.37;4.03;;;22.00;1.00;;;;;;5075506;28;20454;-69
2021/06/10 06:15:16;;;;;;;5.80;3.87;;;22.10;1.00;;;;;;5075670;28;20864;-70
2021/06/10 06:17:44;;;;;;;3.80;3.50;;;22.10;1.00;;;;;;5075563;28;20465;-70
2021/06/10 06:20:12;;;;;;;5.23;3.50;;;22.20;1.00;;;;;;5075631;28;20520;-70
2021/06/10 06:22:41;;;;;;;5.90;3.93;;;22.30;1.00;;;;;;5075305;28;20478;-70
2021/06/10 06:25:09;;;;;;;4.73;3.40;;;22.30;1.00;;;;;;5075045;28;20628;-70
2021/06/10 06:27:35;;;;;;;6.53;4.07;;;22.40;1.00;;;;;;5075206;28;20458;-69
2021/06/10 06:30:03;;;;;;;4.07;3.67;;;22.50;1.00;;;;;;5075032;28;20454;-70
2021/06/10 06:32:29;;;;;;;4.10;3.80;;;22.60;1.00;;;;;;5075197;28;20469;-70
2021/06/10 06:34:56;;;;;;;4.00;3.70;;;22.60;1.00;;;;;;5074815;28;20482;-70
2021/06/10 06:37:22;;;;;;;3.67;3.37;;;22.70;1.00;;;;;;5075247;28;20811;-70
2021/06/10 06:39:49;;;;;;;5.23;4.40;;;22.80;1.00;;;;;;5074761;28;20458;-70
2021/06/10 06:42:15;;;;;;;3.80;3.50;;;23.00;1.00;;;;;;5075064;28;20481;-70
2021/06/10 06:44:41;;;;;;;4.77;3.60;;;23.10;1.00;;;;;;5074653;28;20450;-70
2021/06/10 06:47:07;;;;;;;5.60;3.83;;;23.10;1.00;;;;;;5074468;28;20914;-71
2021/06/10 06:49:34;;;;;;;5.10;3.60;;;23.20;1.00;;;;;;5075549;28;20465;-70
2021/06/10 06:52:02;;;;;;;24.17;17.53;;;23.40;1.00;;;;;;5074925;28;20758;-70
2021/06/10 06:54:28;;;;;;;11.27;10.10;;;23.50;1.00;;;;;;5074690;28;20543;-70
2021/06/10 06:56:54;;;;;;;5.20;4.63;;;23.50;1.00;;;;;;5075313;28;20454;-68
2021/06/10 06:59:20;;;;;;;4.10;3.50;;;23.60;1.00;;;;;;5075128;28;20450;-70
2021/06/10 07:01:49;;;;;;;6.40;4.20;;;23.60;1.00;;;;;;5074414;28;20925;-70
2021/06/10 07:04:15;;;;;;;4.93;4.53;;;23.50;1.00;;;;;;5074365;28;20935;-70
2021/06/10 07:06:41;;;;;;;5.60;4.03;;;23.60;1.00;;;;;;5074456;28;20918;-69
2021/06/10 07:09:09;;;;;;;4.50;4.07;;;23.60;1.00;;;;;;5074547;28;20458;-70
2021/06/10 07:11:37;;;;;;;4.00;3.60;;;23.60;1.00;;;;;;5074816;28;20589;-70
2021/06/10 07:14:05;;;;;;;6.57;4.10;;;23.60;1.00;;;;;;5074493;28;20474;-69
2021/06/10 07:16:31;;;;;;;3.70;3.40;;;23.70;1.00;;;;;;5074910;28;20827;-71
2021/06/10 07:18:58;;;;;;;4.30;3.80;;;23.70;1.00;;;;;;5074795;28;20458;-70
2021/06/10 07:21:24;;;;;;;3.70;3.40;;;23.70;1.00;;;;;;5074686;28;20454;-70
2021/06/10 07:23:50;;;;;;;4.20;3.80;;;23.70;1.00;;;;;;5074250;28;20970;-69
2021/06/10 07:26:20;;;;;;;5.53;3.73;;;23.70;1.00;;;;;;5074549;28;20462;-70
2021/06/10 07:28:46;;;;;;;4.87;4.17;;;23.80;1.00;;;;;;5074777;28;20454;-69
2021/06/10 07:31:13;;;;;;;4.20;3.90;;;23.90;1.00;;;;;;5074640;28;20481;-71
2021/06/10 07:33:39;;;;;;;4.70;4.20;;;23.90;1.00;;;;;;5074489;28;20489;-71
2021/06/10 07:36:05;;;;;;;4.90;4.00;;;24.00;1.00;;;;;;5074800;28;20462;-70
2021/06/10 07:38:31;;;;;;;3.67;3.43;;;24.00;1.00;;;;;;5074441;28;20465;-70
2021/06/10 07:40:58;;;;;;;7.23;4.33;;;24.10;1.00;;;;;;5074788;28;20906;-70
2021/06/10 07:43:25;;;;;;;6.00;3.80;;;24.10;1.00;;;;;;5074414;28;20465;-70
2021/06/10 07:45:51;;;;;;;3.90;3.60;;;24.20;1.00;;;;;;5074263;28;20949;-70
2021/06/10 07:48:17;;;;;;;6.80;4.40;;;24.20;1.00;;;;;;5077712;28;20494;-70
2021/06/10 07:50:44;;;;;;;4.70;4.30;;;24.20;1.00;;;;;;5078278;28;20469;-70
2021/06/10 07:53:10;;;;;;;5.63;4.60;;;24.30;1.00;;;;;;5077790;28;20907;-71
2021/06/10 07:55:37;;;;;;;4.73;4.37;;;24.30;1.00;;;;;;5078269;28;20468;-70
2021/06/10 07:58:03;;;;;;;6.07;5.20;;;24.30;1.00;;;;;;5078487;28;20922;-71
2021/06/10 08:00:30;;;;;;;5.33;4.93;;;24.40;1.00;;;;;;5078492;28;20767;-70
2021/06/10 08:02:58;;;;;;;5.40;4.47;;;24.40;1.00;;;;;;5078524;28;20464;-70
2021/06/10 08:05:26;;;;;;;4.67;4.23;;;24.40;1.00;;;;;;5078209;28;20784;-70
2021/06/10 08:07:54;;;;;;;6.40;5.40;;;24.40;1.00;;;;;;5078073;28;20458;-69
2021/06/10 08:10:21;;;;;;;5.87;5.37;;;24.50;1.00;;;;;;5077885;28;20454;-69
2021/06/10 08:12:47;;;;;;;5.40;5.00;;;24.50;1.00;;;;;;5077893;28;20454;-69
2021/06/10 08:15:15;;;;;;;6.13;4.63;;;24.50;1.00;;;;;;5078073;28;20492;-70
2021/06/10 08:17:42;;;;;;;6.10;4.33;;;24.50;1.00;;;;;;5078177;28;20788;-70
2021/06/10 08:20:11;;;;;;;4.87;4.47;;;24.60;1.00;;;;;;5077804;28;20461;-69
2021/06/10 08:22:37;;;;;;;5.73;4.57;;;24.70;1.00;;;;;;5077617;28;20482;-70
2021/06/10 08:25:05;;;;;;;5.67;5.07;;;24.80;1.00;;;;;;5077292;28;20783;-69
2021/06/10 08:27:31;;;;;;;5.23;4.83;;;24.90;1.00;;;;;;5077713;28;20496;-69
2021/06/10 08:29:58;;;;;;;6.03;5.43;;;25.00;1.00;;;;;;5077610;28;20466;-69
2021/06/10 08:32:24;;;;;;;6.13;5.63;;;25.00;1.00;;;;;;5078204;28;20488;-69
2021/06/10 08:34:52;;;;;;;7.47;5.47;;;25.00;1.00;;;;;;5077846;28;20478;-70
2021/06/10 08:37:18;;;;;;;5.80;4.73;;;25.00;1.00;;;;;;5077791;28;20558;-70
2021/06/10 08:39:44;;;;;;;4.70;4.40;;;25.00;1.00;;;;;;5077582;28;20458;-69
2021/06/10 08:42:11;;;;;;;6.47;4.50;;;25.00;1.00;;;;;;5077481;28;20469;-69
2021/06/10 08:44:37;;;;;;;8.63;4.67;;;25.00;1.00;;;;;;5077165;28;20787;-70
2021/06/10 08:47:07;;;;;;;5.90;5.40;;;25.10;1.00;;;;;;5077614;28;20454;-70
2021/06/10 08:49:33;;;;;;;6.07;5.57;;;25.10;1.00;;;;;;5076897;28;20458;-70
2021/06/10 08:52:05;;;;;;;4.80;4.50;;;25.20;1.00;;;;;;5077315;28;20469;-70
2021/06/10 08:54:31;;;;;;;4.93;4.43;;;25.20;1.00;;;;;;5076991;28;20466;-70
2021/06/10 08:56:58;;;;;;;6.67;5.50;;;25.20;1.00;;;;;;5077153;28;20458;-70
2021/06/10 08:59:24;;;;;;;5.63;5.13;;;25.20;1.00;;;;;;5076559;28;20532;-70
2021/06/10 09:01:50;;;;;;;8.80;5.63;;;25.30;1.00;;;;;;5076398;28;20458;-70
2021/06/10 09:04:17;;;;;;;8.90;5.00;;;25.30;1.00;;;;;;5076959;28;20451;-70
2021/06/10 09:06:48;;;;;;;5.37;4.87;;;25.40;1.00;;;;;;5076674;28;20458;-70
2021/06/10 09:09:20;;;;;;;4.70;4.30;;;25.40;1.00;;;;;;5076730;28;20486;-69
2021/06/10 09:11:47;;;;;;;5.97;5.37;;;25.50;1.00;;;;;;5077024;28;20449;-69
2021/06/10 09:14:13;;;;;;;7.07;6.17;;;25.60;1.00;;;;;;5076708;28;20547;-69
2021/06/10 09:16:43;;;;;;;6.00;5.40;;;25.60;1.00;;;;;;5077064;28;20462;-70
2021/06/10 09:19:13;;;;;;;5.47;5.07;;;25.70;1.00;;;;;;5077166;28;20852;-70
2021/06/10 09:21:41;;;;;;;6.20;5.70;;;25.70;1.00;;;;;;5076357;28;20459;-70
2021/06/10 09:24:24;;;;;;;6.80;6.10;;;25.70;1.00;;;;;;5076021;28;20482;-70
2021/06/10 09:27:02;;;;;;;6.20;5.70;;;25.70;1.00;;;;;;5076418;28;20463;-70
2021/06/10 09:29:39;;;;;;;5.50;5.10;;;25.70;1.00;;;;;;5075816;28;20462;-69
2021/06/10 09:32:10;;;;;;;6.73;5.37;;;25.80;1.00;;;;;;5076095;28;20521;-70
2021/06/10 09:34:45;;;;;;;7.20;5.53;;;25.90;1.00;;;;;;5075989;28;20466;-70
2021/06/10 09:37:13;;;;;;;7.20;5.33;;;26.00;1.00;;;;;;5076097;28;20474;-69
2021/06/10 09:39:51;;;;;;;6.10;5.60;;;26.00;1.00;;;;;;5076322;28;20462;-69
2021/06/10 09:42:23;;;;;;;5.27;4.87;;;26.00;1.00;;;;;;5075932;28;20922;-69
2021/06/10 09:44:54;;;;;;;5.57;5.07;;;25.90;1.00;;;;;;5075720;28;20439;-69
2021/06/10 09:47:26;;;;;;;5.47;5.03;;;26.00;1.00;;;;;;5075770;28;20438;-69
2021/06/10 09:49:53;;;;;;;5.33;4.83;;;26.10;1.00;;;;;;5075950;28;20518;-69
2021/06/10 09:52:20;;;;;;;4.40;4.10;;;26.20;1.00;;;;;;5075591;28;20511;-69
2021/06/10 09:54:50;;;;;;;5.13;4.73;;;26.20;1.00;;;;;;5074854;28;20525;-70
2021/06/10 09:57:17;;;;;;;4.57;4.13;;;26.30;1.00;;;;;;5075162;28;20523;-69
2021/06/10 09:59:46;;;;;;;4.27;3.87;;;26.30;1.00;;;;;;5075353;28;20462;-70
2021/06/10 10:02:21;;;;;;;4.00;3.70;;;26.40;1.00;;;;;;5075273;28;20454;-69
2021/06/10 10:05:02;;;;;;;4.43;4.00;;;26.40;1.00;;;;;;5075474;28;20752;-68
2021/06/10 10:07:30;;;;;;;5.10;4.13;;;26.50;1.00;;;;;;5075025;28;20523;-69
2021/06/10 10:09:57;;;;;;;4.10;3.80;;;26.60;1.00;;;;;;5074755;28;20451;-70
2021/06/10 10:12:26;;;;;;;4.40;4.00;;;26.70;1.00;;;;;;5075029;28;20454;-69
2021/06/10 10:14:54;;;;;;;4.67;4.27;;;26.70;1.00;;;;;;5075281;28;20946;-70
2021/06/10 10:17:21;;;;;;;4.63;4.00;;;26.70;1.00;;;;;;5074742;28;20926;-69
2021/06/10 10:19:48;;;;;;;5.03;4.63;;;26.60;1.00;;;;;;5075065;28;20599;-69
2021/06/10 10:22:15;;;;;;;4.53;4.13;;;26.70;1.00;;;;;;5075003;28;20497;-69
2021/06/10 10:24:42;;;;;;;4.30;4.00;;;26.70;1.00;;;;;;5075396;28;20465;-70
2021/06/10 10:27:10;;;;;;;4.60;4.20;;;26.80;1.00;;;;;;5076466;28;20753;-68
2021/06/10 10:29:39;;;;;;;6.70;4.30;;;26.90;1.00;;;;;;5075587;28;20465;-69
2021/06/10 10:32:08;;;;;;;4.03;3.73;;;26.90;1.00;;;;;;5074929;28;20454;-69
2021/06/10 10:34:35;;;;;;;4.33;4.03;;;26.80;1.00;;;;;;5075022;28;20485;-68
2021/06/10 10:37:17;;;;;;;6.10;3.97;;;26.80;1.00;;;;;;5074803;28;20761;-69
2021/06/10 10:39:44;;;;;;;8.00;4.73;;;26.80;1.00;;;;;;5075135;28;20449;-70
2021/06/10 10:42:14;;;;;;;4.87;3.97;;;26.90;1.00;;;;;;5074225;28;20470;-70
2021/06/10 10:44:42;;;;;;;4.80;4.30;;;26.90;1.00;;;;;;5074323;28;20507;-68
2021/06/10 10:47:10;;;;;;;5.10;4.20;;;26.90;1.00;;;;;;5074644;28;20951;-70
2021/06/10 10:49:41;;;;;;;4.53;4.13;;;26.90;1.00;;;;;;5075735;28;20489;-69
2021/06/10 10:52:34;;;;;;;3.67;3.37;;;27.00;1.00;;;;;;5075181;28;20903;-68
2021/06/10 10:55:18;;;;;;;3.90;3.60;;;27.10;1.00;;;;;;5074886;28;20462;-68
2021/06/10 10:57:45;;;;;;;4.43;3.20;;;27.10;1.00;;;;;;5075501;28;20525;-69
2021/06/10 11:00:20;;;;;;;5.10;3.50;;;27.20;1.00;;;;;;5074516;28;20552;-68
2021/06/10 11:03:07;;;;;;;3.83;3.63;;;27.30;1.00;;;;;;5074601;28;20441;-68
2021/06/10 11:05:34;;;;;;;4.10;3.47;;;27.30;1.00;;;;;;5074018;28;20458;-70
2021/06/10 11:08:00;;;;;;;3.80;3.60;;;27.30;1.00;;;;;;5074183;28;20458;-70
2021/06/10 11:10:56;;;;;;;3.83;3.50;;;27.30;1.00;;;;;;5073791;28;20462;-70
2021/06/10 11:13:23;;;;;;;4.10;3.80;;;27.30;1.00;;;;;;5074305;28;20787;-68
2021/06/10 11:15:50;;;;;;;3.93;3.63;;;27.50;1.00;;;;;;5074653;28;20478;-69
2021/06/10 11:18:44;;;;;;;4.00;3.67;;;27.70;1.00;;;;;;5074755;28;20458;-68
2021/06/10 11:21:34;;;;;;;5.60;4.47;;;28.00;1.00;;;;;;5074526;28;20450;-69
2021/06/10 11:24:15;;;;;;;3.53;3.23;;;28.50;1.00;;;;;;5077619;28;20466;-69
2021/06/10 11:26:54;;;;;;;3.90;3.20;;;29.20;1.00;;;;;;5076195;28;20454;-68
2021/06/10 11:29:20;;;;;;;3.03;2.77;;;29.80;1.00;;;;;;5078280;28;20492;-69
2021/06/10 11:32:18;;;;;;;3.30;3.00;;;30.60;1.00;;;;;;5078086;28;20465;-68
2021/06/10 11:34:50;;;;;;;4.30;2.83;;;31.30;1.00;;;;;;5078295;28;20466;-69
2021/06/10 11:37:21;;;;;;;3.80;3.13;;;32.10;1.00;;;;;;5078419;28;20457;-69
2021/06/10 11:39:47;;;;;;;3.40;3.20;;;32.30;1.00;;;;;;5078168;28;20450;-69
2021/06/10 11:42:14;;;;;;;3.40;3.13;;;32.30;1.00;;;;;;5078071;28;20462;-69
2021/06/10 11:44:47;;;;;;;3.93;3.57;;;32.50;1.00;;;;;;5078164;28;20461;-69
2021/06/10 11:47:22;;;;;;;3.50;3.20;;;32.90;1.00;;;;;;5077340;28;20947;-68
2021/06/10 11:49:48;;;;;;;3.10;2.90;;;33.30;1.00;;;;;;5077928;28;20550;-68
2021/06/10 11:52:14;;;;;;;2.77;2.57;;;33.70;1.00;;;;;;5078333;28;20469;-69
2021/06/10 11:55:03;;;;;;;3.00;2.80;;;34.20;1.00;;;;;;5077699;28;20478;-69
2021/06/10 11:57:30;;;;;;;3.20;3.00;;;34.60;1.00;;;;;;5077509;28;20453;-69
2021/06/10 11:59:56;;;;;;;5.87;2.77;;;35.10;1.00;;;;;;5077562;28;20462;-69
2021/06/10 12:02:24;;;;;;;3.80;2.77;;;35.50;1.00;;;;;;5076954;28;20465;-69
2021/06/10 12:05:06;;;;;;;2.73;2.53;;;35.60;1.00;;;;;;5077601;28;20461;-69
2021/06/10 12:07:32;;;;;;;2.77;2.57;;;35.80;1.00;;;;;;5078046;28;20434;-69
2021/06/10 12:10:01;;;;;;;3.97;3.30;;;36.30;1.00;;;;;;5077652;28;20567;-69
2021/06/10 12:12:33;;;;;;;2.77;2.57;;;36.80;1.00;;;;;;5077539;28;20926;-69
2021/06/10 12:14:59;;;;;;;2.87;2.63;;;37.10;1.00;;;;;;5077574;28;20818;-69
2021/06/10 12:17:25;;;;;;;3.27;3.07;;;37.50;1.00;;;;;;5077014;28;20461;-69
2021/06/10 12:20:16;;;;;;;3.63;2.97;;;37.50;1.00;;;;;;5077510;28;20454;-69
2021/06/10 12:22:44;;;;;;;3.70;3.30;;;36.70;1.00;;;;;;5077337;28;20490;-69
2021/06/10 12:25:18;;;;;;;4.70;3.27;;;35.90;1.00;;;;;;5077084;28;20457;-69
2021/06/10 12:27:46;;;;;;;3.33;3.13;;;35.40;1.00;;;;;;5077972;28;20543;-69
2021/06/10 12:30:24;;;;;;;5.40;3.20;;;35.10;1.00;;;;;;5077152;28;20964;-69
2021/06/10 12:32:50;;;;;;;3.00;2.77;;;34.70;1.00;;;;;;5076921;28;20458;-69
2021/06/10 12:35:19;;;;;;;4.17;2.90;;;34.60;1.00;;;;;;5076998;28;20966;-68
2021/06/10 12:37:50;;;;;;;3.07;2.87;;;34.50;1.00;;;;;;5077403;28;20469;-68
2021/06/10 12:40:17;;;;;;;3.20;3.00;;;34.00;1.00;;;;;;5077783;28;20453;-67
2021/06/10 12:43:06;;;;;;;3.60;3.30;;;33.60;1.00;;;;;;5077045;28;20514;-68
2021/06/10 12:45:33;;;;;;;3.10;2.80;;;33.20;1.00;;;;;;5078032;28;20435;-69
2021/06/10 12:47:59;;;;;;;4.40;3.67;;;33.10;1.00;;;;;;5077367;28;20450;-69
2021/06/10 12:50:27;;;;;;;4.00;3.00;;;33.60;1.00;;;;;;5076945;28;20783;-69
2021/06/10 12:52:54;;;;;;;3.43;3.13;;;34.40;1.00;;;;;;5076885;28;20519;-68
2021/06/10 12:55:27;;;;;;;3.70;2.73;;;35.10;1.00;;;;;;5076473;28;20519;-69
2021/06/10 12:57:57;;;;;;;3.13;2.80;;;35.40;1.00;;;;;;5076649;28;20443;-68
2021/06/10 13:00:33;;;;;;;3.10;2.80;;;35.00;1.00;;;;;;5076857;28;20443;-69
2021/06/10 13:03:07;;;;;;;3.93;2.13;;;34.80;1.00;;;;;;5077505;28;20945;-70